sensor_id;sensor_type;location;lat;lon;timestamp;pressure;altitude;pressure_sealevel;temperature;humidity
39891;BME280;25564;53.312;9.790;2022-09-25T00:02:13;100583.97;;;13.90;95.90
39891;BME280;25564;53.312;9.790;2022-09-25T00:04:44;100577.75;;;13.89;96.17
39891;BME280;25564;53.312;9.790;2022-09-25T00:07:15;100578.69;;;13.88;96.31
39891;BME280;25564;53.312;9.790;2022-09-25T00:09:46;100565.56;;;13.82;96.24
39891;BME280;25564;53.312;9.790;2022-09-25T00:12:18;100575.19;;;13.86;96.29
39891;BME280;25564;53.312;9.790;2022-09-25T00:14:50;100564.59;;;13.85;96.20
39891;BME280;25564;53.312;9.790;2022-09-25T00:17:21;100570.84;;;13.84;96.71
39891;BME280;25564;53.312;9.790;2022-09-25T00:19:53;100575.31;;;13.83;96.30
39891;BME280;25564;53.312;9.790;2022-09-25T00:22:24;100561.19;;;13.80;96.36
39891;BME280;25564;53.312;9.790;2022-09-25T00:24:56;100576.16;;;13.84;96.54
39891;BME280;25564;53.312;9.790;2022-09-25T00:27:28;100568.28;;;13.81;96.50
39891;BME280;25564;53.312;9.790;2022-09-25T00:29:59;100563.03;;;13.78;96.63
39891;BME280;25564;53.312;9.790;2022-09-25T00:32:31;100553.44;;;13.72;96.43
39891;BME280;25564;53.312;9.790;2022-09-25T00:35:03;100573.44;;;13.85;96.86
39891;BME280;25564;53.312;9.790;2022-09-25T00:37:35;100570.63;;;13.90;96.48
39891;BME280;25564;53.312;9.790;2022-09-25T00:40:07;100567.97;;;13.90;96.36
39891;BME280;25564;53.312;9.790;2022-09-25T00:42:38;100572.28;;;13.94;96.66
39891;BME280;25564;53.312;9.790;2022-09-25T00:45:20;100565.09;;;13.96;96.58
39891;BME280;25564;53.312;9.790;2022-09-25T00:47:57;100567.72;;;13.97;96.52
39891;BME280;25564;53.312;9.790;2022-09-25T00:50:38;100568.59;;;13.98;96.43
39891;BME280;25564;53.312;9.790;2022-09-25T00:53:15;100566.84;;;13.97;96.41
39891;BME280;25564;53.312;9.790;2022-09-25T00:55:49;100570.28;;;14.00;96.62
39891;BME280;25564;53.312;9.790;2022-09-25T00:58:22;100567.56;;;14.02;96.78
39891;BME280;25564;53.312;9.790;2022-09-25T01:00:54;100558.84;;;13.97;96.59
39891;BME280;25564;53.312;9.790;2022-09-25T01:03:26;100548.25;;;13.94;96.39
39891;BME280;25564;53.312;9.790;2022-09-25T01:05:59;100552.53;;;13.99;96.45
39891;BME280;25564;53.312;9.790;2022-09-25T01:08:32;100558.69;;;14.01;96.54
39891;BME280;25564;53.312;9.790;2022-09-25T01:11:04;100558.94;;;13.94;96.50
39891;BME280;25564;53.312;9.790;2022-09-25T01:13:35;100560.69;;;13.95;96.52
39891;BME280;25564;53.312;9.790;2022-09-25T01:19:26;100564.06;;;14.00;96.35
39891;BME280;25564;53.312;9.790;2022-09-25T01:22:26;100554.41;;;13.96;96.56
39891;BME280;25564;53.312;9.790;2022-09-25T01:31:15;100555.34;;;13.95;96.56
39891;BME280;25564;53.312;9.790;2022-09-25T01:33:54;100567.59;;;14.00;96.39
39891;BME280;25564;53.312;9.790;2022-09-25T01:36:35;100568.53;;;13.99;96.57
39891;BME280;25564;53.312;9.790;2022-09-25T01:39:15;100548.25;;;13.94;96.46
39891;BME280;25564;53.312;9.790;2022-09-25T01:41:57;100554.63;;;13.90;96.66
39891;BME280;25564;53.312;9.790;2022-09-25T01:44:33;100565.91;;;13.98;96.57
39891;BME280;25564;53.312;9.790;2022-09-25T01:47:08;100565.88;;;13.99;96.38
39891;BME280;25564;53.312;9.790;2022-09-25T01:49:49;100569.50;;;13.97;96.33
39891;BME280;25564;53.312;9.790;2022-09-25T01:52:28;100563.28;;;13.96;96.14
39891;BME280;25564;53.312;9.790;2022-09-25T01:55:09;100545.09;;;13.83;96.49
39891;BME280;25564;53.312;9.790;2022-09-25T01:57:45;100559.81;;;13.94;96.54
39891;BME280;25564;53.312;9.790;2022-09-25T02:00:21;100558.00;;;13.95;96.30
39891;BME280;25564;53.312;9.790;2022-09-25T02:03:00;100551.91;;;13.91;96.62
39891;BME280;25564;53.312;9.790;2022-09-25T02:05:42;100558.06;;;13.93;96.67
39891;BME280;25564;53.312;9.790;2022-09-25T02:08:46;100558.13;;;13.92;96.71
39891;BME280;25564;53.312;9.790;2022-09-25T02:11:20;100566.22;;;13.89;96.78
39891;BME280;25564;53.312;9.790;2022-09-25T02:13:58;100556.53;;;13.86;97.03
39891;BME280;25564;53.312;9.790;2022-09-25T02:16:39;100564.59;;;13.85;97.03
39891;BME280;25564;53.312;9.790;2022-09-25T02:19:15;100550.63;;;13.77;97.03
39891;BME280;25564;53.312;9.790;2022-09-25T02:22:18;100561.28;;;13.77;97.03
39891;BME280;25564;53.312;9.790;2022-09-25T02:24:56;100557.66;;;13.79;97.02
39891;BME280;25564;53.312;9.790;2022-09-25T02:27:30;100558.56;;;13.78;97.14
39891;BME280;25564;53.312;9.790;2022-09-25T02:30:03;100566.63;;;13.77;97.12
39891;BME280;25564;53.312;9.790;2022-09-25T02:32:34;100567.56;;;13.75;96.89
39891;BME280;25564;53.312;9.790;2022-09-25T02:35:06;100550.94;;;13.67;97.43
39891;BME280;25564;53.312;9.790;2022-09-25T02:37:37;100566.72;;;13.73;97.49
39891;BME280;25564;53.312;9.790;2022-09-25T02:40:08;100562.31;;;13.72;97.21
39891;BME280;25564;53.312;9.790;2022-09-25T02:42:47;100571.25;;;13.71;97.31
39891;BME280;25564;53.312;9.790;2022-09-25T02:45:45;100566.84;;;13.70;97.30
39891;BME280;25564;53.312;9.790;2022-09-25T02:51:19;100565.19;;;13.66;97.11
39891;BME280;25564;53.312;9.790;2022-09-25T02:54:04;100559.06;;;13.63;97.30
39891;BME280;25564;53.312;9.790;2022-09-25T02:56:56;100562.66;;;13.62;97.10
39891;BME280;25564;53.312;9.790;2022-09-25T02:59:38;100540.75;;;13.52;97.23
39891;BME280;25564;53.312;9.790;2022-09-25T03:02:12;100560.06;;;13.60;97.36
39891;BME280;25564;53.312;9.790;2022-09-25T03:04:46;100539.06;;;13.51;97.47
39891;BME280;25564;53.312;9.790;2022-09-25T03:07:18;100556.59;;;13.57;97.57
39891;BME280;25564;53.312;9.790;2022-09-25T03:09:51;100560.94;;;13.61;97.68
39891;BME280;25564;53.312;9.790;2022-09-25T03:12:25;100543.44;;;13.52;97.46
39891;BME280;25564;53.312;9.790;2022-09-25T03:14:56;100556.56;;;13.58;97.53
39891;BME280;25564;53.312;9.790;2022-09-25T03:17:27;100539.16;;;13.48;97.84
39891;BME280;25564;53.312;9.790;2022-09-25T03:19:58;100546.00;;;13.55;97.14
39891;BME280;25564;53.312;9.790;2022-09-25T03:22:30;100550.50;;;13.53;97.44
39891;BME280;25564;53.312;9.790;2022-09-25T03:25:03;100545.13;;;13.55;97.54
39891;BME280;25564;53.312;9.790;2022-09-25T03:27:34;100551.22;;;13.58;97.58
39891;BME280;25564;53.312;9.790;2022-09-25T03:30:07;100542.41;;;13.56;97.88
39891;BME280;25564;53.312;9.790;2022-09-25T03:32:38;100554.63;;;13.63;97.75
39891;BME280;25564;53.312;9.790;2022-09-25T03:35:12;100557.22;;;13.65;97.73
39891;BME280;25564;53.312;9.790;2022-09-25T03:37:43;100555.38;;;13.67;97.53
39891;BME280;25564;53.312;9.790;2022-09-25T03:40:14;100557.13;;;13.68;97.63
39891;BME280;25564;53.312;9.790;2022-09-25T03:42:46;100543.09;;;13.63;97.72
39891;BME280;25564;53.312;9.790;2022-09-25T03:45:18;100554.53;;;13.66;97.91
39891;BME280;25564;53.312;9.790;2022-09-25T03:47:49;100550.97;;;13.66;96.78
39891;BME280;25564;53.312;9.790;2022-09-25T03:50:21;100543.94;;;13.63;97.52
39891;BME280;25564;53.312;9.790;2022-09-25T03:52:52;100532.56;;;13.58;97.84
39891;BME280;25564;53.312;9.790;2022-09-25T03:55:23;100545.78;;;13.61;97.40
39891;BME280;25564;53.312;9.790;2022-09-25T03:57:56;100543.84;;;13.66;97.72
39891;BME280;25564;53.312;9.790;2022-09-25T04:00:27;100532.56;;;13.58;97.79
39891;BME280;25564;53.312;9.790;2022-09-25T04:02:58;100543.94;;;13.63;97.70
39891;BME280;25564;53.312;9.790;2022-09-25T04:05:30;100535.94;;;13.63;98.06
39891;BME280;25564;53.312;9.790;2022-09-25T04:08:01;100538.50;;;13.66;98.20
39891;BME280;25564;53.312;9.790;2022-09-25T04:10:33;100547.25;;;13.71;98.10
39891;BME280;25564;53.312;9.790;2022-09-25T04:13:09;100548.13;;;13.72;97.89
39891;BME280;25564;53.312;9.790;2022-09-25T04:15:43;100547.34;;;13.68;97.45
39891;BME280;25564;53.312;9.790;2022-09-25T04:18:14;100542.94;;;13.67;97.99
39891;BME280;25564;53.312;9.790;2022-09-25T04:20:46;100551.81;;;13.68;97.79
39891;BME280;25564;53.312;9.790;2022-09-25T04:23:17;100547.34;;;13.68;97.88
39891;BME280;25564;53.312;9.790;2022-09-25T04:25:48;100546.47;;;13.68;97.86
39891;BME280;25564;53.312;9.790;2022-09-25T04:28:20;100521.94;;;13.57;98.03
39891;BME280;25564;53.312;9.790;2022-09-25T04:30:52;100550.94;;;13.67;97.84
39891;BME280;25564;53.312;9.790;2022-09-25T04:33:24;100528.16;;;13.57;97.79
39891;BME280;25564;53.312;9.790;2022-09-25T04:36:16;100552.78;;;13.65;97.96
39891;BME280;25564;53.312;9.790;2022-09-25T04:38:49;100538.91;;;13.54;98.25
39891;BME280;25564;53.312;9.790;2022-09-25T04:41:20;100552.88;;;13.62;98.01
39891;BME280;25564;53.312;9.790;2022-09-25T04:43:51;100555.59;;;13.61;97.65
39891;BME280;25564;53.312;9.790;2022-09-25T04:46:22;100548.50;;;13.60;98.00
39891;BME280;25564;53.312;9.790;2022-09-25T04:48:54;100553.78;;;13.61;97.90
39891;BME280;25564;53.312;9.790;2022-09-25T04:51:25;100552.88;;;13.62;98.53
39891;BME280;25564;53.312;9.790;2022-09-25T04:53:56;100549.38;;;13.60;97.96
39891;BME280;25564;53.312;9.790;2022-09-25T04:56:28;100546.78;;;13.59;97.92
39891;BME280;25564;53.312;9.790;2022-09-25T04:58:59;100530.31;;;13.46;98.11
39891;BME280;25564;53.312;9.790;2022-09-25T05:01:30;100553.06;;;13.56;98.16
39891;BME280;25564;53.312;9.790;2022-09-25T05:04:02;100552.19;;;13.56;98.36
39891;BME280;25564;53.312;9.790;2022-09-25T05:06:38;100531.34;;;13.42;98.22
39891;BME280;25564;53.312;9.790;2022-09-25T05:09:10;100552.16;;;13.57;98.42
39891;BME280;25564;53.312;9.790;2022-09-25T05:11:41;100550.41;;;13.56;98.31
39891;BME280;25564;53.312;9.790;2022-09-25T05:14:12;100562.88;;;13.56;98.45
39891;BME280;25564;53.312;9.790;2022-09-25T05:16:47;100550.44;;;13.55;98.51
39891;BME280;25564;53.312;9.790;2022-09-25T05:19:19;100555.03;;;13.51;98.14
39891;BME280;25564;53.312;9.790;2022-09-25T05:21:51;100536.69;;;13.42;97.97
39891;BME280;25564;53.312;9.790;2022-09-25T05:24:23;100548.41;;;13.36;97.97
39891;BME280;25564;53.312;9.790;2022-09-25T05:26:54;100559.84;;;13.40;98.25
39891;BME280;25564;53.312;9.790;2022-09-25T05:29:25;100556.41;;;13.36;98.02
39891;BME280;25564;53.312;9.790;2022-09-25T05:31:56;100554.72;;;13.34;97.93
39891;BME280;25564;53.312;9.790;2022-09-25T05:34:28;100550.41;;;13.30;98.31
39891;BME280;25564;53.312;9.790;2022-09-25T05:36:59;100553.00;;;13.31;98.21
39891;BME280;25564;53.312;9.790;2022-09-25T05:39:30;100549.47;;;13.31;98.41
39891;BME280;25564;53.312;9.790;2022-09-25T05:42:02;100555.72;;;13.30;98.11
39891;BME280;25564;53.312;9.790;2022-09-25T05:44:33;100549.53;;;13.29;98.34
39891;BME280;25564;53.312;9.790;2022-09-25T05:47:04;100547.78;;;13.28;98.27
39891;BME280;25564;53.312;9.790;2022-09-25T05:49:37;100546.13;;;13.24;99.06
39891;BME280;25564;53.312;9.790;2022-09-25T05:52:09;100547.69;;;13.31;98.05
39891;BME280;25564;53.312;9.790;2022-09-25T05:54:40;100544.16;;;13.31;98.43
39891;BME280;25564;53.312;9.790;2022-09-25T05:57:12;100550.41;;;13.30;98.52
39891;BME280;25564;53.312;9.790;2022-09-25T05:59:43;100545.84;;;13.33;98.66
39891;BME280;25564;53.312;9.790;2022-09-25T06:02:15;100538.88;;;13.29;98.39
39891;BME280;25564;53.312;9.790;2022-09-25T06:04:47;100550.25;;;13.34;98.40
39891;BME280;25564;53.312;9.790;2022-09-25T06:07:18;100547.69;;;13.31;98.08
39891;BME280;25564;53.312;9.790;2022-09-25T06:09:50;100533.81;;;13.20;98.11
39891;BME280;25564;53.312;9.790;2022-09-25T06:12:21;100537.34;;;13.21;98.30
39891;BME280;25564;53.312;9.790;2022-09-25T06:14:54;100530.28;;;13.20;98.37
39891;BME280;25564;53.312;9.790;2022-09-25T06:17:26;100546.94;;;13.26;98.83
39891;BME280;25564;53.312;9.790;2022-09-25T06:19:57;100539.00;;;13.25;98.44
39891;BME280;25564;53.312;9.790;2022-09-25T06:22:28;100542.53;;;13.25;98.47
39891;BME280;25564;53.312;9.790;2022-09-25T06:25:00;100537.16;;;13.27;98.77
39891;BME280;25564;53.312;9.790;2022-09-25T06:27:31;100526.66;;;13.22;98.59
39891;BME280;25564;53.312;9.790;2022-09-25T06:30:04;100532.75;;;13.26;98.73
39891;BME280;25564;53.312;9.790;2022-09-25T06:32:36;100546.75;;;13.32;98.55
39891;BME280;25564;53.312;9.790;2022-09-25T06:35:08;100546.72;;;13.34;98.74
39891;BME280;25564;53.312;9.790;2022-09-25T06:37:39;100528.50;;;13.20;98.42
39891;BME280;25564;53.312;9.790;2022-09-25T06:40:10;100548.59;;;13.30;98.47
39891;BME280;25564;53.312;9.790;2022-09-25T06:42:42;100539.09;;;13.22;98.40
39891;BME280;25564;53.312;9.790;2022-09-25T06:45:15;100553.09;;;13.28;98.40
39891;BME280;25564;53.312;9.790;2022-09-25T06:47:46;100548.00;;;13.21;98.42
39891;BME280;25564;53.312;9.790;2022-09-25T06:50:17;100550.59;;;13.24;98.71
39891;BME280;25564;53.312;9.790;2022-09-25T06:52:48;100538.31;;;13.18;99.01
39891;BME280;25564;53.312;9.790;2022-09-25T06:55:20;100555.78;;;13.28;98.51
39891;BME280;25564;53.312;9.790;2022-09-25T06:57:51;100553.25;;;13.24;98.59
39891;BME280;25564;53.312;9.790;2022-09-25T07:00:23;100556.78;;;13.24;98.52
39891;BME280;25564;53.312;9.790;2022-09-25T07:02:56;100523.41;;;13.11;98.56
39891;BME280;25564;53.312;9.790;2022-09-25T07:05:46;100548.84;;;13.23;98.50
39891;BME280;25564;53.312;9.790;2022-09-25T07:08:19;100548.94;;;13.20;98.77
39891;BME280;25564;53.312;9.790;2022-09-25T07:10:55;100549.72;;;13.23;98.89
39891;BME280;25564;53.312;9.790;2022-09-25T07:13:29;100547.00;;;13.25;98.89
39891;BME280;25564;53.312;9.790;2022-09-25T07:16:06;100546.19;;;13.23;98.88
39891;BME280;25564;53.312;9.790;2022-09-25T07:18:38;100552.38;;;13.23;98.75
39891;BME280;25564;53.312;9.790;2022-09-25T07:23:43;100559.31;;;13.29;98.75
39891;BME280;25564;53.312;9.790;2022-09-25T07:26:26;100562.84;;;13.29;98.82
39891;BME280;25564;53.312;9.790;2022-09-25T07:29:03;100566.47;;;13.27;98.42
39891;BME280;25564;53.312;9.790;2022-09-25T07:31:36;100558.53;;;13.25;98.55
39891;BME280;25564;53.312;9.790;2022-09-25T07:34:08;100561.25;;;13.24;98.58
39891;BME280;25564;53.312;9.790;2022-09-25T07:36:40;100563.13;;;13.20;98.99
39891;BME280;25564;53.312;9.790;2022-09-25T07:39:12;100552.63;;;13.14;98.66
39891;BME280;25564;53.312;9.790;2022-09-25T07:41:49;100574.66;;;13.21;98.82
39891;BME280;25564;53.312;9.790;2022-09-25T07:44:20;100563.38;;;13.11;98.76
39891;BME280;25564;53.312;9.790;2022-09-25T07:47:00;100571.22;;;13.17;98.90
39891;BME280;25564;53.312;9.790;2022-09-25T07:49:32;100572.03;;;13.19;99.09
39891;BME280;25564;53.312;9.790;2022-09-25T07:52:05;100565.00;;;13.17;98.73
39891;BME280;25564;53.312;9.790;2022-09-25T07:54:36;100567.53;;;13.21;99.11
39891;BME280;25564;53.312;9.790;2022-09-25T07:57:08;100577.13;;;13.27;98.66
39891;BME280;25564;53.312;9.790;2022-09-25T07:59:39;100577.19;;;13.25;99.05
39891;BME280;25564;53.312;9.790;2022-09-25T08:02:11;100573.66;;;13.25;99.02
39891;BME280;25564;53.312;9.790;2022-09-25T08:04:42;100582.56;;;13.24;98.64
39891;BME280;25564;53.312;9.790;2022-09-25T08:07:13;100575.69;;;13.17;98.70
39891;BME280;25564;53.312;9.790;2022-09-25T08:09:45;100580.16;;;13.15;98.90
39891;BME280;25564;53.312;9.790;2022-09-25T08:12:16;100571.41;;;13.09;98.91
39891;BME280;25564;53.312;9.790;2022-09-25T08:14:49;100574.81;;;13.15;99.07
39891;BME280;25564;53.312;9.790;2022-09-25T08:17:20;100577.38;;;13.19;99.20
39891;BME280;25564;53.312;9.790;2022-09-25T08:19:52;100582.56;;;13.24;99.29
39891;BME280;25564;53.312;9.790;2022-09-25T08:22:23;100580.78;;;13.24;98.99
39891;BME280;25564;53.312;9.790;2022-09-25T08:24:55;100579.94;;;13.22;99.25
39891;BME280;25564;53.312;9.790;2022-09-25T08:27:26;100577.31;;;13.21;99.05
39891;BME280;25564;53.312;9.790;2022-09-25T08:29:57;100573.03;;;13.15;99.05
39891;BME280;25564;53.312;9.790;2022-09-25T08:32:32;100566.09;;;13.09;98.98
39891;BME280;25564;53.312;9.790;2022-09-25T08:35:04;100585.38;;;13.19;99.10
39891;BME280;25564;53.312;9.790;2022-09-25T08:37:39;100571.38;;;13.11;98.89
39891;BME280;25564;53.312;9.790;2022-09-25T08:40:14;100581.00;;;13.17;98.80
39891;BME280;25564;53.312;9.790;2022-09-25T08:42:49;100571.50;;;13.06;99.04
39891;BME280;25564;53.312;9.790;2022-09-25T08:45:26;100582.91;;;13.12;99.14
39891;BME280;25564;53.312;9.790;2022-09-25T08:48:20;100569.53;;;13.13;99.29
39891;BME280;25564;53.312;9.790;2022-09-25T08:51:11;100572.25;;;13.12;99.54
39891;BME280;25564;53.312;9.790;2022-09-25T08:53:43;100585.41;;;13.18;99.27
39891;BME280;25564;53.312;9.790;2022-09-25T08:56:16;100573.94;;;13.14;99.13
39891;BME280;25564;53.312;9.790;2022-09-25T08:59:05;100586.16;;;13.23;99.22
39891;BME280;25564;53.312;9.790;2022-09-25T09:01:50;100588.59;;;13.30;99.54
39891;BME280;25564;53.312;9.790;2022-09-25T09:04:35;100592.75;;;13.39;99.66
39891;BME280;25564;53.312;9.790;2022-09-25T09:07:28;100589.16;;;13.40;99.16
39891;BME280;25564;53.312;9.790;2022-09-25T09:13:04;100578.50;;;13.40;99.57
39891;BME280;25564;53.312;9.790;2022-09-25T09:15:43;100579.84;;;13.53;99.87
39891;BME280;25564;53.312;9.790;2022-09-25T09:18:24;100576.97;;;13.59;99.70
39891;BME280;25564;53.312;9.790;2022-09-25T09:21:06;100572.47;;;13.61;99.32
39891;BME280;25564;53.312;9.790;2022-09-25T09:32:22;100578.16;;;13.77;98.52
39891;BME280;25564;53.312;9.790;2022-09-25T09:37:46;100594.84;;;13.84;98.31
39891;BME280;25564;53.312;9.790;2022-09-25T09:40:38;100591.34;;;13.82;98.57
39891;BME280;25564;53.312;9.790;2022-09-25T09:46:27;100589.81;;;13.74;98.65
39891;BME280;25564;53.312;9.790;2022-09-25T09:49:15;100593.31;;;13.77;99.36
39891;BME280;25564;53.312;9.790;2022-09-25T09:52:01;100590.59;;;13.78;98.93
39891;BME280;25564;53.312;9.790;2022-09-25T09:54:44;100589.59;;;13.81;99.09
39891;BME280;25564;53.312;9.790;2022-09-25T09:59:56;100576.47;;;13.74;98.81
39891;BME280;25564;53.312;9.790;2022-09-25T10:02:39;100594.75;;;13.87;98.38
39891;BME280;25564;53.312;9.790;2022-09-25T10:08:22;100590.22;;;13.89;98.98
39891;BME280;25564;53.312;9.790;2022-09-25T10:10:54;100591.81;;;13.94;98.47
39891;BME280;25564;53.312;9.790;2022-09-25T10:13:31;100589.97;;;13.96;98.66
39891;BME280;25564;53.312;9.790;2022-09-25T10:16:09;100592.66;;;13.96;98.48
39891;BME280;25564;53.312;9.790;2022-09-25T10:21:22;100581.41;;;14.13;98.53
39891;BME280;25564;53.312;9.790;2022-09-25T10:23:55;100586.63;;;14.16;98.07
39891;BME280;25564;53.312;9.790;2022-09-25T10:29:23;100583.16;;;14.14;97.68
39891;BME280;25564;53.312;9.790;2022-09-25T10:32:01;100587.72;;;14.11;97.91
39891;BME280;25564;53.312;9.790;2022-09-25T10:34:33;100588.84;;;14.03;97.37
39891;BME280;25564;53.312;9.790;2022-09-25T10:37:14;100580.34;;;13.92;97.87
39891;BME280;25564;53.312;9.790;2022-09-25T10:40:16;100593.81;;;13.88;97.65
39891;BME280;25564;53.312;9.790;2022-09-25T10:43:22;100587.88;;;13.80;97.89
39891;BME280;25564;53.312;9.790;2022-09-25T10:46:13;100585.44;;;13.72;97.91
39891;BME280;25564;53.312;9.790;2022-09-25T10:48:45;100589.91;;;13.71;98.35
39891;BME280;25564;53.312;9.790;2022-09-25T10:51:35;100589.91;;;13.71;98.61
39891;BME280;25564;53.312;9.790;2022-09-25T10:54:12;100589.00;;;13.72;98.87
39891;BME280;25564;53.312;9.790;2022-09-25T10:56:44;100589.72;;;13.78;99.52
39891;BME280;25564;53.312;9.790;2022-09-25T10:59:19;100597.66;;;13.79;98.73
39891;BME280;25564;53.312;9.790;2022-09-25T11:01:52;100588.22;;;13.69;98.29
39891;BME280;25564;53.312;9.790;2022-09-25T11:04:28;100593.50;;;13.70;98.31
39891;BME280;25564;53.312;9.790;2022-09-25T11:07:03;100592.56;;;13.71;98.56
39891;BME280;25564;53.312;9.790;2022-09-25T11:09:42;100591.75;;;13.69;98.47
39891;BME280;25564;53.312;9.790;2022-09-25T11:12:20;100565.59;;;13.54;98.33
39891;BME280;25564;53.312;9.790;2022-09-25T11:14:56;100592.78;;;13.65;98.52
39891;BME280;25564;53.312;9.790;2022-09-25T11:17:39;100601.53;;;13.69;98.71
39891;BME280;25564;53.312;9.790;2022-09-25T11:23:20;100601.50;;;13.70;98.71
39891;BME280;25564;53.312;9.790;2022-09-25T11:26:11;100593.44;;;13.72;98.61
39891;BME280;25564;53.312;9.790;2022-09-25T11:28:56;100578.72;;;13.60;99.02
39891;BME280;25564;53.312;9.790;2022-09-25T11:31:36;100588.84;;;13.77;99.01
39891;BME280;25564;53.312;9.790;2022-09-25T11:34:22;100597.75;;;13.76;98.21
39891;BME280;25564;53.312;9.790;2022-09-25T11:39:58;100588.44;;;13.89;99.27
39891;BME280;25564;53.312;9.790;2022-09-25T11:43:08;100597.00;;;13.99;98.94
39891;BME280;25564;53.312;9.790;2022-09-25T11:45:48;100587.34;;;13.95;98.39
39891;BME280;25564;53.312;9.790;2022-09-25T11:48:45;100603.16;;;14.01;97.94
39891;BME280;25564;53.312;9.790;2022-09-25T11:57:24;100593.72;;;13.91;97.55
39891;BME280;25564;53.312;9.790;2022-09-25T12:00:19;100592.91;;;13.89;97.65
39891;BME280;25564;53.312;9.790;2022-09-25T12:03:01;100591.22;;;13.86;97.79
39891;BME280;25564;53.312;9.790;2022-09-25T12:08:45;100588.91;;;14.02;97.93
39891;BME280;25564;53.312;9.790;2022-09-25T12:11:27;100576.47;;;14.01;97.88
39891;BME280;25564;53.312;9.790;2022-09-25T12:14:16;100585.00;;;14.12;97.74
39891;BME280;25564;53.312;9.790;2022-09-25T12:17:08;100572.16;;;14.23;98.40
39891;BME280;25564;53.312;9.790;2022-09-25T12:22:56;100568.25;;;14.33;97.71
39891;BME280;25564;53.312;9.790;2022-09-25T12:35:01;100559.91;;;14.18;98.15
39891;BME280;25564;53.312;9.790;2022-09-25T12:37:49;100554.81;;;14.10;98.30
39891;BME280;25564;53.312;9.790;2022-09-25T12:40:28;100545.19;;;14.06;97.75
39891;BME280;25564;53.312;9.790;2022-09-25T12:43:13;100544.97;;;14.12;98.22
39891;BME280;25564;53.312;9.790;2022-09-25T12:46:20;100554.19;;;14.28;98.61
39891;BME280;25564;53.312;9.790;2022-09-25T12:49:07;100560.50;;;14.26;98.26
39891;BME280;25564;53.312;9.790;2022-09-25T12:51:46;100547.22;;;14.24;98.91
39891;BME280;25564;53.312;9.790;2022-09-25T12:57:38;100553.22;;;14.56;99.41
39891;BME280;25564;53.312;9.790;2022-09-25T13:00:18;100545.59;;;14.68;99.21
39891;BME280;25564;53.312;9.790;2022-09-25T13:02:57;100546.31;;;14.97;99.64
39891;BME280;25564;53.312;9.790;2022-09-25T13:05:36;100549.59;;;15.27;99.61
39891;BME280;25564;53.312;9.790;2022-09-25T13:08:18;100535.84;;;15.36;98.86
39891;BME280;25564;53.312;9.790;2022-09-25T13:10:57;100550.28;;;15.54;98.67
39891;BME280;25564;53.312;9.790;2022-09-25T13:13:36;100539.28;;;15.61;97.92
39891;BME280;25564;53.312;9.790;2022-09-25T13:16:10;100532.63;;;15.72;97.38
39891;BME280;25564;53.312;9.790;2022-09-25T13:19:09;100534.38;;;15.73;96.36
39891;BME280;25564;53.312;9.790;2022-09-25T13:21:39;100525.28;;;15.77;96.64
39891;BME280;25564;53.312;9.790;2022-09-25T13:24:14;100526.75;;;15.84;95.80
39891;BME280;25564;53.312;9.790;2022-09-25T13:26:52;100518.28;;;15.94;96.55
39891;BME280;25564;53.312;9.790;2022-09-25T13:29:27;100516.63;;;16.12;96.06
39891;BME280;25564;53.312;9.790;2022-09-25T13:34:44;100516.28;;;16.20;94.93
39891;BME280;25564;53.312;9.790;2022-09-25T13:37:16;100510.38;;;16.12;94.52
39891;BME280;25564;53.312;9.790;2022-09-25T13:39:48;100494.59;;;16.06;93.50
39891;BME280;25564;53.312;9.790;2022-09-25T13:42:43;100515.34;;;16.00;92.63
39891;BME280;25564;53.312;9.790;2022-09-25T13:45:34;100515.38;;;15.79;91.77
39891;BME280;25564;53.312;9.790;2022-09-25T13:48:09;100509.34;;;15.74;93.51
39891;BME280;25564;53.312;9.790;2022-09-25T13:50:46;100514.94;;;15.89;93.91
39891;BME280;25564;53.312;9.790;2022-09-25T13:53:24;100503.63;;;16.03;93.46
39891;BME280;25564;53.312;9.790;2022-09-25T13:58:57;100500.09;;;16.02;92.15
39891;BME280;25564;53.312;9.790;2022-09-25T14:01:43;100512.72;;;15.99;92.24
39891;BME280;25564;53.312;9.790;2022-09-25T14:06:50;100493.84;;;15.82;91.55
39891;BME280;25564;53.312;9.790;2022-09-25T14:09:27;100508.53;;;15.72;91.31
39891;BME280;25564;53.312;9.790;2022-09-25T14:12:19;100506.75;;;15.50;91.27
39891;BME280;25564;53.312;9.790;2022-09-25T14:15:04;100503.78;;;15.36;92.11
39891;BME280;25564;53.312;9.790;2022-09-25T14:17:41;100492.50;;;15.28;92.31
39891;BME280;25564;53.312;9.790;2022-09-25T14:20:20;100497.63;;;15.34;92.52
39891;BME280;25564;53.312;9.790;2022-09-25T14:22:59;100494.75;;;15.38;93.71
39891;BME280;25564;53.312;9.790;2022-09-25T14:25:35;100496.72;;;15.57;93.97
39891;BME280;25564;53.312;9.790;2022-09-25T14:28:28;100494.09;;;15.76;93.93
39891;BME280;25564;53.312;9.790;2022-09-25T14:40:17;100470.50;;;15.85;92.68
39891;BME280;25564;53.312;9.790;2022-09-25T14:46:03;100466.88;;;15.86;92.79
39891;BME280;25564;53.312;9.790;2022-09-25T14:48:49;100446.75;;;15.78;92.67
39891;BME280;25564;53.312;9.790;2022-09-25T14:51:37;100467.16;;;16.00;93.07
39891;BME280;25564;53.312;9.790;2022-09-25T14:54:15;100462.41;;;16.07;92.35
39891;BME280;25564;53.312;9.790;2022-09-25T14:56:51;100463.59;;;16.00;92.09
39891;BME280;25564;53.312;9.790;2022-09-25T14:59:33;100457.44;;;15.98;92.17
39891;BME280;25564;53.312;9.790;2022-09-25T15:02:16;100456.91;;;15.90;91.78
39891;BME280;25564;53.312;9.790;2022-09-25T15:04:49;100461.78;;;15.80;91.19
39891;BME280;25564;53.312;9.790;2022-09-25T15:07:25;100455.16;;;15.68;91.00
39891;BME280;25564;53.312;9.790;2022-09-25T15:09:57;100455.66;;;15.58;91.07
39891;BME280;25564;53.312;9.790;2022-09-25T15:12:32;100443.63;;;15.46;90.83
39891;BME280;25564;53.312;9.790;2022-09-25T15:15:11;100438.78;;;15.34;90.67